createdAt,value
2023-04-15T00:00:08.447Z,9.90
2023-04-15T00:01:08.702Z,9.10
2023-04-15T00:02:09.039Z,9.80
2023-04-15T00:03:09.445Z,9.60
2023-04-15T00:04:09.573Z,10.20
2023-04-15T00:05:09.830Z,12.40
2023-04-15T00:06:10.155Z,8.80
2023-04-15T00:07:10.368Z,9.90
2023-04-15T00:08:10.631Z,9.90
2023-04-15T00:09:10.900Z,12.50
2023-04-15T00:10:11.180Z,10.10
2023-04-15T00:11:11.462Z,11.90
2023-04-15T00:12:11.741Z,11.00
2023-04-15T00:13:12.009Z,10.50
2023-04-15T00:14:12.311Z,12.40
2023-04-15T00:15:12.616Z,9.60
2023-04-15T00:16:12.952Z,11.00
2023-04-15T00:17:13.132Z,9.50
2023-04-15T00:18:13.413Z,10.60
2023-04-15T00:19:13.682Z,10.20
2023-04-15T00:20:13.978Z,12.80
2023-04-15T00:21:14.279Z,11.60
2023-04-15T00:22:14.549Z,13.30
2023-04-15T00:23:14.852Z,11.50
2023-04-15T00:24:15.128Z,11.80
2023-04-15T00:25:15.419Z,9.90
2023-04-15T00:26:15.724Z,15.20
2023-04-15T00:27:15.964Z,10.60
2023-04-15T00:28:16.233Z,9.90
2023-04-15T00:29:16.505Z,10.90
2023-04-15T00:30:16.766Z,10.90
2023-04-15T00:31:17.216Z,11.20
2023-04-15T00:32:17.311Z,10.00
2023-04-15T00:33:17.582Z,9.40
2023-04-15T00:34:17.879Z,8.90
2023-04-15T00:35:18.135Z,12.10
2023-04-15T00:36:18.421Z,10.80
2023-04-15T00:37:18.709Z,8.80
2023-04-15T00:38:18.993Z,12.10
2023-04-15T00:39:19.272Z,9.40
2023-04-15T00:40:19.549Z,8.80
2023-04-15T00:41:19.808Z,9.00
2023-04-15T00:42:20.083Z,10.80
2023-04-15T00:43:20.355Z,11.50
2023-04-15T00:44:20.609Z,10.10
2023-04-15T00:45:20.892Z,10.50
2023-04-15T00:46:21.221Z,10.50
2023-04-15T00:47:21.469Z,9.00
2023-04-15T00:48:21.718Z,10.20
2023-04-15T00:49:22.007Z,9.30
2023-04-15T00:50:22.294Z,10.90
2023-04-15T00:51:22.606Z,8.60
2023-04-15T00:52:22.878Z,9.70
2023-04-15T00:53:23.143Z,10.30
2023-04-15T00:54:23.448Z,10.20
2023-04-15T00:55:23.721Z,9.20
2023-04-15T00:56:24.007Z,9.70
2023-04-15T00:57:24.316Z,8.10
2023-04-15T00:58:24.558Z,10.20
2023-04-15T00:59:24.834Z,9.20
2023-04-15T01:00:25.073Z,7.70
2023-04-15T01:01:25.490Z,10.60
2023-04-15T01:02:25.770Z,10.10
2023-04-15T01:03:26.198Z,9.70
2023-04-15T01:04:26.303Z,9.80
2023-04-15T01:05:26.516Z,10.60
2023-04-15T01:06:26.877Z,10.50
2023-04-15T01:07:27.134Z,7.00
2023-04-15T01:08:27.414Z,9.50
2023-04-15T01:09:27.664Z,9.10
2023-04-15T01:10:27.948Z,12.30
2023-04-15T01:11:28.233Z,9.40
2023-04-15T01:12:28.505Z,10.00
2023-04-15T01:13:28.780Z,9.90
2023-04-15T01:14:29.075Z,10.80
2023-04-15T01:15:29.358Z,9.40
2023-04-15T01:16:29.756Z,9.60
2023-04-15T01:17:30.050Z,9.90
2023-04-15T01:18:30.294Z,6.30
2023-04-15T01:19:30.560Z,9.60
2023-04-15T01:20:30.817Z,8.80
2023-04-15T01:21:31.101Z,11.30
2023-04-15T01:22:31.373Z,9.40
2023-04-15T01:23:31.622Z,9.30
2023-04-15T01:24:31.884Z,10.60
2023-04-15T01:25:32.170Z,10.60
2023-04-15T01:26:32.481Z,9.10
2023-04-15T01:27:32.746Z,13.50
2023-04-15T01:28:33.027Z,9.20
2023-04-15T01:29:33.287Z,8.70
2023-04-15T01:30:33.554Z,10.30
2023-04-15T01:31:33.897Z,9.30
2023-04-15T01:32:34.167Z,10.30
2023-04-15T01:33:34.439Z,11.80
2023-04-15T01:34:35.966Z,13.30
2023-04-15T01:35:35.023Z,12.10
2023-04-15T01:36:35.360Z,9.30
2023-04-15T01:37:35.591Z,8.50
2023-04-15T01:38:35.897Z,9.50
2023-04-15T01:39:36.146Z,8.20
2023-04-15T01:40:36.413Z,10.10
2023-04-15T01:41:36.705Z,9.50
2023-04-15T01:42:36.979Z,9.00
2023-04-15T01:43:37.277Z,9.80
2023-04-15T01:44:37.495Z,10.20
2023-04-15T01:45:37.768Z,9.50
2023-04-15T01:46:38.150Z,11.20
2023-04-15T01:47:38.403Z,10.20
2023-04-15T01:48:38.652Z,10.70
2023-04-15T01:49:38.957Z,10.50
2023-04-15T01:50:39.227Z,11.60
2023-04-15T01:51:39.563Z,13.20
2023-04-15T01:52:39.823Z,10.30
2023-04-15T01:53:40.087Z,11.10
2023-04-15T01:54:40.383Z,11.70
2023-04-15T01:55:40.687Z,13.00
2023-04-15T01:56:40.985Z,11.10
2023-04-15T01:57:41.273Z,10.80
2023-04-15T01:58:41.512Z,12.50
2023-04-15T01:59:41.787Z,12.50
2023-04-15T02:00:42.072Z,13.50
2023-04-15T02:01:42.336Z,10.80
2023-04-15T02:02:42.762Z,12.30
2023-04-15T02:03:43.032Z,14.00
2023-04-15T02:04:43.188Z,12.60
2023-04-15T02:05:43.444Z,10.30
2023-04-15T02:06:43.786Z,10.70
2023-04-15T02:07:44.009Z,10.40
2023-04-15T02:08:44.286Z,10.50
2023-04-15T02:09:44.582Z,13.70
2023-04-15T02:10:44.878Z,10.90
2023-04-15T02:11:45.181Z,11.20
2023-04-15T02:12:45.436Z,9.00
2023-04-15T02:13:45.727Z,12.10
2023-04-15T02:14:45.995Z,12.20
2023-04-15T02:15:46.297Z,9.10
2023-04-15T02:16:46.681Z,13.40
2023-04-15T02:17:46.957Z,11.10
2023-04-15T02:18:47.207Z,11.00
2023-04-15T02:19:47.446Z,9.10
2023-04-15T02:20:47.715Z,11.30
2023-04-15T02:21:48.029Z,10.60
2023-04-15T02:22:48.291Z,9.00
2023-04-15T02:23:48.526Z,10.90
2023-04-15T02:24:48.856Z,11.00
2023-04-15T02:25:53.907Z,11.30
2023-04-15T02:26:50.346Z,10.70
2023-04-15T02:27:49.682Z,9.70
2023-04-15T02:28:49.937Z,10.80
2023-04-15T02:29:50.218Z,10.50
2023-04-15T02:30:50.512Z,11.60
2023-04-15T02:31:50.821Z,11.90
2023-04-15T02:32:51.165Z,11.80
2023-04-15T02:33:51.416Z,11.20
2023-04-15T02:34:51.712Z,13.50
2023-04-15T02:35:52.029Z,10.70
2023-04-15T02:36:52.301Z,8.80
2023-04-15T02:37:52.601Z,10.70
2023-04-15T02:38:52.836Z,9.50
2023-04-15T02:39:53.110Z,11.10
2023-04-15T02:40:53.398Z,13.10
2023-04-15T02:41:53.697Z,13.00
2023-04-15T02:42:53.987Z,13.00
2023-04-15T02:43:54.253Z,11.90
2023-04-15T02:44:54.521Z,10.50
2023-04-15T02:45:54.794Z,10.90
2023-04-15T02:46:55.059Z,11.40
2023-04-15T02:47:55.351Z,11.50
2023-04-15T02:48:55.630Z,10.60
2023-04-15T02:50:02.910Z,10.00
2023-04-15T02:50:56.156Z,9.80
2023-04-15T02:51:56.470Z,12.10
2023-04-15T02:52:58.480Z,10.50
2023-04-15T02:53:57.054Z,12.70
2023-04-15T02:54:57.356Z,12.20
2023-04-15T02:55:57.691Z,10.10
2023-04-15T02:56:57.954Z,10.70
2023-04-15T02:57:58.225Z,8.30
2023-04-15T02:58:58.563Z,10.50
2023-04-15T02:59:58.780Z,9.10
2023-04-15T03:00:59.103Z,11.60
2023-04-15T03:01:59.372Z,11.70
2023-04-15T03:02:59.826Z,11.30
2023-04-15T03:04:00.109Z,10.20
2023-04-15T03:05:00.253Z,11.00
2023-04-15T03:06:00.529Z,10.30
2023-04-15T03:07:00.827Z,13.70
2023-04-15T03:08:01.218Z,9.50
2023-04-15T03:09:01.734Z,9.90
2023-04-15T03:10:01.660Z,10.50
2023-04-15T03:11:01.924Z,8.80
2023-04-15T03:12:02.185Z,11.60
2023-04-15T03:13:02.471Z,10.80
2023-04-15T03:14:02.746Z,13.20
2023-04-15T03:15:03.044Z,12.90
2023-04-15T03:16:03.343Z,13.50
2023-04-15T03:17:03.649Z,12.40
2023-04-15T03:18:03.902Z,11.70
2023-04-15T03:19:04.334Z,11.70
2023-04-15T03:20:04.490Z,9.20
2023-04-15T03:21:04.707Z,10.50
2023-04-15T03:22:04.973Z,12.40
2023-04-15T03:23:05.274Z,12.30
2023-04-15T03:24:05.572Z,11.70
2023-04-15T03:25:05.856Z,11.40
2023-04-15T03:26:06.161Z,9.80
2023-04-15T03:27:06.401Z,12.80
2023-04-15T03:28:06.672Z,10.40
2023-04-15T03:29:06.939Z,12.60
2023-04-15T03:30:07.244Z,10.00
2023-04-15T03:31:07.542Z,10.50
2023-04-15T03:32:07.757Z,11.30
2023-04-15T03:33:08.003Z,11.20
2023-04-15T03:34:08.293Z,14.40
2023-04-15T03:35:08.579Z,14.00
2023-04-15T03:36:08.835Z,11.40
2023-04-15T03:37:09.096Z,14.70
2023-04-15T03:38:09.385Z,10.40
2023-04-15T03:39:09.666Z,11.70
2023-04-15T03:40:10.006Z,10.70
2023-04-15T03:41:10.247Z,10.80
2023-04-15T03:42:10.548Z,11.80
2023-04-15T03:43:10.840Z,10.80
2023-04-15T03:44:11.109Z,13.40
2023-04-15T03:45:11.391Z,12.10
2023-04-15T03:46:11.724Z,11.30
2023-04-15T03:47:12.050Z,9.90
2023-04-15T03:48:17.740Z,12.60
2023-04-15T03:49:13.550Z,13.00
2023-04-15T03:50:12.895Z,10.50
2023-04-15T03:51:13.135Z,9.70
2023-04-15T03:52:13.397Z,12.30
2023-04-15T03:53:13.701Z,12.30
2023-04-15T03:54:13.950Z,11.90
2023-04-15T03:55:14.238Z,14.30
2023-04-15T03:56:14.520Z,12.40
2023-04-15T03:57:14.832Z,11.60
2023-04-15T03:58:15.117Z,12.30
2023-04-15T03:59:15.419Z,11.30
2023-04-15T04:00:15.760Z,11.40
2023-04-15T04:01:16.005Z,10.40
2023-04-15T04:02:16.367Z,9.90
2023-04-15T04:03:16.855Z,9.80
2023-04-15T04:04:16.984Z,14.50
2023-04-15T04:05:17.104Z,10.40
2023-04-15T04:06:17.379Z,14.20
2023-04-15T04:07:17.696Z,12.00
2023-04-15T04:08:17.997Z,12.50
2023-04-15T04:09:18.288Z,9.80
2023-04-15T04:10:18.573Z,12.30
2023-04-15T04:11:18.862Z,14.40
2023-04-15T04:12:19.173Z,12.40
2023-04-15T04:13:19.493Z,12.40
2023-04-15T04:14:19.811Z,10.70
2023-04-15T04:15:20.119Z,10.20
2023-04-15T04:16:20.470Z,10.40
2023-04-15T04:17:20.786Z,11.40
2023-04-15T04:18:21.076Z,10.40
2023-04-15T04:19:21.395Z,12.20
2023-04-15T04:20:21.669Z,11.80
2023-04-15T04:21:21.979Z,15.60
2023-04-15T04:22:22.321Z,11.70
2023-04-15T04:23:22.577Z,9.90
2023-04-15T04:24:22.857Z,12.30
2023-04-15T04:25:23.134Z,10.20
2023-04-15T04:26:23.421Z,12.80
2023-04-15T04:27:23.713Z,9.10
2023-04-15T04:28:23.973Z,11.10
2023-04-15T04:29:24.260Z,10.30
2023-04-15T04:30:24.542Z,11.10
2023-04-15T04:31:24.844Z,13.60
2023-04-15T04:32:25.206Z,10.60
2023-04-15T04:33:25.452Z,11.30
2023-04-15T04:34:25.753Z,10.00
2023-04-15T04:35:26.051Z,9.40
2023-04-15T04:36:26.322Z,13.20
2023-04-15T04:37:26.650Z,8.40
2023-04-15T04:38:26.971Z,11.80
2023-04-15T04:39:27.294Z,12.10
2023-04-15T04:40:27.573Z,12.10
2023-04-15T04:41:27.888Z,10.10
2023-04-15T04:42:28.194Z,9.70
2023-04-15T04:43:28.482Z,9.50
2023-04-15T04:44:28.780Z,9.10
2023-04-15T04:45:29.112Z,10.00
2023-04-15T04:46:29.408Z,10.40
2023-04-15T04:47:29.816Z,13.50
2023-04-15T04:48:30.003Z,10.80
2023-04-15T04:49:30.326Z,13.70
2023-04-15T04:50:30.632Z,8.60
2023-04-15T04:51:30.947Z,11.60
2023-04-15T04:52:31.210Z,9.10
2023-04-15T04:53:31.507Z,10.40
2023-04-15T04:54:31.847Z,9.90
2023-04-15T04:55:32.126Z,11.30
2023-04-15T04:56:32.396Z,10.30
2023-04-15T04:57:32.690Z,12.60
2023-04-15T04:58:33.012Z,11.90
2023-04-15T04:59:33.320Z,11.30
2023-04-15T05:00:33.688Z,13.10
2023-04-15T05:01:33.996Z,13.50
2023-04-15T05:02:34.383Z,13.40
2023-04-15T05:03:34.670Z,9.00
2023-04-15T05:04:34.788Z,15.50
2023-04-15T05:05:35.149Z,11.50
2023-04-15T05:06:35.455Z,12.10
2023-04-15T05:07:35.744Z,10.70
2023-04-15T05:08:36.059Z,14.50
2023-04-15T05:09:36.382Z,12.80
2023-04-15T05:10:36.751Z,14.00
2023-04-15T05:11:37.015Z,12.00
2023-04-15T05:12:37.330Z,10.10
2023-04-15T05:13:37.631Z,12.10
2023-04-15T05:14:38.140Z,10.30
2023-04-15T05:15:38.312Z,9.80
2023-04-15T05:16:38.557Z,11.70
2023-04-15T05:17:38.882Z,10.70
2023-04-15T05:18:39.156Z,10.60
2023-04-15T05:19:39.473Z,10.30
2023-04-15T05:20:39.838Z,11.30
2023-04-15T05:21:40.041Z,11.90
2023-04-15T05:22:40.354Z,10.40
2023-04-15T05:23:40.671Z,11.50
2023-04-15T05:24:40.974Z,9.50
2023-04-15T05:25:41.306Z,11.30
2023-04-15T05:26:42.777Z,10.70
2023-04-15T05:27:41.835Z,9.60
2023-04-15T05:28:42.143Z,8.40
2023-04-15T05:29:42.458Z,9.50
2023-04-15T05:30:42.816Z,9.10
2023-04-15T05:31:43.138Z,9.90
2023-04-15T05:32:43.494Z,9.20
2023-04-15T05:33:43.652Z,8.30
2023-04-15T05:34:43.975Z,9.20
2023-04-15T05:35:44.288Z,7.70
2023-04-15T05:36:44.572Z,8.30
2023-04-15T05:37:44.887Z,7.70
2023-04-15T05:38:45.206Z,8.10
2023-04-15T05:39:45.511Z,9.00
2023-04-15T05:40:45.825Z,10.70
2023-04-15T05:41:46.131Z,12.10
2023-04-15T05:42:46.477Z,9.70
2023-04-15T05:43:46.788Z,7.80
2023-04-15T05:44:47.111Z,6.90
2023-04-15T05:45:47.446Z,8.60
2023-04-15T05:46:47.756Z,8.90
2023-04-15T05:47:48.081Z,7.10
2023-04-15T05:48:48.372Z,7.30
2023-04-15T05:49:48.704Z,7.60
2023-04-15T05:50:49.032Z,7.00
2023-04-15T05:51:49.351Z,7.20
2023-04-15T05:52:49.709Z,8.00
2023-04-15T05:53:50.027Z,6.40
2023-04-15T05:54:50.355Z,7.00
2023-04-15T05:55:50.679Z,6.40
2023-04-15T05:56:51.034Z,6.90
2023-04-15T05:57:51.353Z,7.60
2023-04-15T05:58:53.683Z,10.00
2023-04-15T05:59:51.998Z,12.50
2023-04-15T06:00:52.359Z,7.70
2023-04-15T06:01:52.616Z,8.40
2023-04-15T06:02:52.833Z,6.50
2023-04-15T06:03:53.294Z,8.70
2023-04-15T06:04:53.360Z,7.50
2023-04-15T06:05:53.657Z,12.10
2023-04-15T06:06:53.881Z,8.10
2023-04-15T06:07:54.193Z,7.90
2023-04-15T06:08:54.514Z,6.60
2023-04-15T06:09:54.856Z,9.60
2023-04-15T06:10:55.221Z,7.40
2023-04-15T06:11:55.572Z,10.00
2023-04-15T06:12:55.751Z,8.60
2023-04-15T06:13:56.041Z,7.70
2023-04-15T06:14:57.553Z,7.30
2023-04-15T06:15:56.692Z,8.70
2023-04-15T06:16:56.811Z,8.80
2023-04-15T06:17:57.180Z,9.50
2023-04-15T06:18:57.433Z,7.30
2023-04-15T06:19:57.745Z,9.20
2023-04-15T06:20:58.060Z,9.00
2023-04-15T06:21:58.400Z,9.70
2023-04-15T06:22:58.578Z,8.80
2023-04-15T06:23:58.889Z,5.90
2023-04-15T06:24:59.228Z,8.50
2023-04-15T06:25:59.572Z,10.40
2023-04-15T06:26:59.763Z,9.80
2023-04-15T06:28:00.055Z,9.90
2023-04-15T06:29:00.646Z,10.20
2023-04-15T06:30:00.692Z,6.70
2023-04-15T06:31:00.936Z,11.70
2023-04-15T06:32:01.254Z,12.70
2023-04-15T06:33:01.763Z,8.10
2023-04-15T06:34:01.890Z,6.70
2023-04-15T06:35:02.238Z,8.40
2023-04-15T06:36:02.482Z,7.60
2023-04-15T06:37:04.467Z,10.30
2023-04-15T06:38:02.998Z,8.20
2023-04-15T06:39:03.586Z,7.50
2023-04-15T06:40:03.640Z,9.10
2023-04-15T06:41:04.002Z,11.60
2023-04-15T06:42:04.302Z,10.10
2023-04-15T06:43:04.621Z,10.40
2023-04-15T06:44:04.974Z,9.20
2023-04-15T06:45:05.276Z,9.80
2023-04-15T06:46:05.616Z,9.20
2023-04-15T06:47:05.900Z,8.40
2023-04-15T06:48:06.200Z,10.60
2023-04-15T06:49:06.492Z,8.80
2023-04-15T06:50:06.821Z,10.70
2023-04-15T06:51:07.142Z,13.40
2023-04-15T06:52:07.522Z,9.20
2023-04-15T06:53:07.831Z,9.40
2023-04-15T06:54:08.066Z,8.30
2023-04-15T06:55:08.263Z,9.10
2023-04-15T06:56:08.605Z,11.00
2023-04-15T06:57:08.832Z,9.00
2023-04-15T06:58:09.137Z,8.30
2023-04-15T06:59:09.461Z,9.70
2023-04-15T07:00:09.804Z,8.40
2023-04-15T07:01:10.212Z,9.90
2023-04-15T07:02:10.388Z,11.10
2023-04-15T07:03:10.617Z,10.90
2023-04-15T07:04:11.006Z,11.90
2023-04-15T07:05:11.144Z,10.00
2023-04-15T07:06:11.519Z,10.90
2023-04-15T07:07:11.726Z,11.10
2023-04-15T07:08:12.090Z,11.30
2023-04-15T07:09:12.289Z,11.50
2023-04-15T07:10:12.641Z,10.30
2023-04-15T07:11:12.952Z,11.50
2023-04-15T07:12:13.273Z,11.40
2023-04-15T07:13:13.580Z,8.00
2023-04-15T07:14:13.887Z,7.40
2023-04-15T07:15:14.255Z,8.80
2023-04-15T07:16:14.483Z,7.70
2023-04-15T07:17:14.765Z,8.50
2023-04-15T07:18:15.113Z,8.00
2023-04-15T07:19:15.293Z,9.00
2023-04-15T07:20:15.625Z,7.90
2023-04-15T07:21:15.974Z,9.10
2023-04-15T07:22:16.258Z,8.30
2023-04-15T07:23:16.581Z,6.90
2023-04-15T07:24:16.914Z,7.70
2023-04-15T07:25:17.229Z,7.70
2023-04-15T07:26:17.589Z,6.40
2023-04-15T07:27:17.966Z,9.20
2023-04-15T07:28:18.125Z,6.70
2023-04-15T07:29:18.459Z,7.50
2023-04-15T07:30:18.832Z,12.10
2023-04-15T07:31:19.068Z,7.00
2023-04-15T07:32:19.421Z,7.40
2023-04-15T07:33:19.608Z,8.60
2023-04-15T07:34:19.922Z,7.50
2023-04-15T07:35:20.223Z,6.40
2023-04-15T07:36:20.551Z,10.10
2023-04-15T07:37:20.779Z,7.70
2023-04-15T07:38:21.080Z,12.40
2023-04-15T07:39:21.405Z,6.00
2023-04-15T07:40:21.796Z,8.50
2023-04-15T07:41:21.995Z,10.20
2023-04-15T07:42:22.202Z,6.90
2023-04-15T07:43:22.531Z,9.10
2023-04-15T07:44:22.723Z,9.30
2023-04-15T07:45:23.072Z,8.90
2023-04-15T07:46:23.413Z,10.90
2023-04-15T07:47:23.677Z,10.80
2023-04-15T07:48:23.830Z,13.10
2023-04-15T07:49:24.161Z,10.90
2023-04-15T07:50:24.489Z,8.30
2023-04-15T07:51:24.794Z,10.90
2023-04-15T07:52:25.129Z,12.20
2023-04-15T07:53:25.450Z,11.60
2023-04-15T07:54:25.772Z,9.40
2023-04-15T07:55:28.159Z,10.60
2023-04-15T07:56:26.360Z,11.30
2023-04-15T07:57:26.685Z,9.40
2023-04-15T07:58:26.977Z,13.90
2023-04-15T07:59:27.308Z,10.90
2023-04-15T08:00:27.650Z,12.60
2023-04-15T08:01:27.983Z,13.30
2023-04-15T08:02:28.417Z,10.60
2023-04-15T08:03:28.794Z,12.10
2023-04-15T08:04:28.954Z,13.10
2023-04-15T08:05:29.206Z,10.70
2023-04-15T08:06:29.425Z,10.90
2023-04-15T08:07:29.705Z,12.50
2023-04-15T08:08:29.886Z,10.50
2023-04-15T08:09:30.122Z,12.50
2023-04-15T08:10:30.432Z,11.50
2023-04-15T08:11:30.767Z,9.30
2023-04-15T08:12:31.149Z,13.30
2023-04-15T08:13:31.320Z,12.80
2023-04-15T08:14:31.619Z,13.00
2023-04-15T08:15:31.910Z,12.90
2023-04-15T08:16:32.447Z,12.90
2023-04-15T08:17:32.475Z,13.30
2023-04-15T08:18:32.781Z,12.30
2023-04-15T08:19:33.094Z,13.00
2023-04-15T08:20:33.397Z,11.80
2023-04-15T08:21:33.734Z,12.90
2023-04-15T08:22:34.069Z,9.20
2023-04-15T08:23:34.368Z,13.30
2023-04-15T08:24:34.679Z,14.10
2023-04-15T08:25:35.039Z,9.10
2023-04-15T08:26:35.366Z,12.20
2023-04-15T08:27:35.558Z,11.20
2023-04-15T08:28:35.893Z,10.40
2023-04-15T08:29:36.207Z,12.10
2023-04-15T08:30:36.548Z,10.20
2023-04-15T08:31:36.926Z,10.10
2023-04-15T08:32:37.152Z,11.30
2023-04-15T08:33:37.463Z,10.70
2023-04-15T08:34:37.688Z,9.70
2023-04-15T08:35:38.019Z,11.90
2023-04-15T08:36:38.274Z,14.50
2023-04-15T08:37:38.441Z,11.70
2023-04-15T08:38:38.792Z,12.50
2023-04-15T08:39:38.988Z,10.70
2023-04-15T08:40:39.321Z,10.70
2023-04-15T08:41:39.648Z,9.70
2023-04-15T08:42:39.952Z,10.00
2023-04-15T08:43:40.275Z,10.30
2023-04-15T08:44:40.580Z,10.70
2023-04-15T08:45:40.901Z,11.30
2023-04-15T08:46:41.288Z,15.20
2023-04-15T08:47:41.562Z,9.50
2023-04-15T08:48:41.717Z,10.70
2023-04-15T08:49:42.064Z,8.80
2023-04-15T08:50:42.383Z,10.70
2023-04-15T08:51:42.707Z,10.80
2023-04-15T08:52:43.023Z,8.70
2023-04-15T08:53:43.386Z,8.80
2023-04-15T08:54:43.643Z,7.30
2023-04-15T08:55:43.965Z,6.60
2023-04-15T08:56:44.283Z,4.80
2023-04-15T08:57:44.575Z,7.10
2023-04-15T08:58:44.939Z,5.80
2023-04-15T08:59:45.215Z,5.70
2023-04-15T09:00:45.536Z,3.60
2023-04-15T09:01:45.920Z,4.70
2023-04-15T09:02:46.224Z,3.20
2023-04-15T09:03:46.493Z,3.80
2023-04-15T09:04:46.623Z,5.90
2023-04-15T09:05:46.905Z,4.50
2023-04-15T09:06:47.252Z,4.20
2023-04-15T09:07:47.523Z,4.50
2023-04-15T09:08:47.733Z,4.60
2023-04-15T09:09:48.037Z,2.90
2023-04-15T09:10:48.341Z,4.10
2023-04-15T09:11:48.668Z,2.20
2023-04-15T09:12:48.956Z,4.30
2023-04-15T09:13:49.272Z,5.00
2023-04-15T09:14:49.583Z,5.90
2023-04-15T09:15:49.886Z,3.90
2023-04-15T09:16:50.584Z,38.20
2023-04-15T09:17:50.481Z,39.20
2023-04-15T09:18:50.756Z,64.50
2023-04-15T09:19:51.105Z,32.60
2023-04-15T09:20:51.344Z,26.40
2023-04-15T09:21:51.626Z,59.00
2023-04-15T09:22:51.825Z,40.60
2023-04-15T09:23:52.042Z,76.30
2023-04-15T09:24:52.392Z,74.10
2023-04-15T09:25:52.624Z,77.20
2023-04-15T09:26:52.931Z,4.80
2023-04-15T09:27:53.223Z,10.10
2023-04-15T09:28:53.593Z,5.50
2023-04-15T09:29:53.898Z,4.60
2023-04-15T09:30:54.250Z,3.80
2023-04-15T09:31:54.547Z,3.30
2023-04-15T09:32:54.850Z,3.80
2023-04-15T09:33:55.164Z,3.60
2023-04-15T09:34:55.485Z,6.20
2023-04-15T09:35:55.795Z,5.40
2023-04-15T09:36:56.179Z,4.80
2023-04-15T09:37:56.420Z,2.40
2023-04-15T09:38:56.773Z,4.80
2023-04-15T09:39:57.091Z,4.10
2023-04-15T09:40:57.415Z,12.00
2023-04-15T09:41:57.742Z,11.30
2023-04-15T09:42:58.098Z,5.60
2023-04-15T09:43:58.404Z,21.40
2023-04-15T09:44:58.762Z,5.80
2023-04-15T09:45:59.119Z,8.60
2023-04-15T09:46:59.447Z,13.00
2023-04-15T09:47:59.709Z,9.90
2023-04-15T09:48:59.985Z,12.10
2023-04-15T09:50:00.535Z,6.60
2023-04-15T09:51:00.670Z,3.90
2023-04-15T09:52:05.512Z,7.00
2023-04-15T09:53:02.258Z,6.40
2023-04-15T09:54:01.787Z,4.90
2023-04-15T09:55:01.862Z,13.70
2023-04-15T09:56:02.200Z,21.50
2023-04-15T09:57:02.543Z,30.60
2023-04-15T09:58:02.767Z,4.80
2023-04-15T09:59:03.087Z,3.50
2023-04-15T10:00:03.366Z,14.90
2023-04-15T10:01:03.703Z,21.40
2023-04-15T10:02:04.093Z,43.90
2023-04-15T10:03:04.438Z,20.50
2023-04-15T10:04:04.998Z,7.90
2023-04-15T10:05:04.896Z,2.90
2023-04-15T10:06:05.184Z,13.90
2023-04-15T10:07:05.544Z,5.50
2023-04-15T10:08:05.815Z,2.20
2023-04-15T10:09:06.097Z,15.00
2023-04-15T10:10:06.409Z,12.00
2023-04-15T10:11:06.712Z,4.60
2023-04-15T10:12:07.023Z,13.00
2023-04-15T10:13:07.336Z,17.60
2023-04-15T10:14:07.654Z,13.00
2023-04-15T10:15:07.957Z,7.60
2023-04-15T10:16:08.339Z,5.30
2023-04-15T10:17:08.591Z,2.90
2023-04-15T10:18:08.905Z,5.60
2023-04-15T10:19:09.496Z,4.10
2023-04-15T10:20:09.468Z,7.80
2023-04-15T10:21:09.802Z,3.00
2023-04-15T10:22:10.172Z,7.80
2023-04-15T10:23:12.832Z,5.30
2023-04-15T10:24:10.691Z,15.70
2023-04-15T10:25:11.017Z,15.20
2023-04-15T10:26:11.352Z,7.70
2023-04-15T10:27:11.669Z,10.20
2023-04-15T10:28:11.969Z,5.20
2023-04-15T10:29:12.261Z,4.30
2023-04-15T10:30:12.560Z,8.50
2023-04-15T10:31:12.893Z,5.10
2023-04-15T10:32:13.174Z,2.90
2023-04-15T10:33:13.489Z,2.10
2023-04-15T10:34:13.839Z,2.30
2023-04-15T10:35:14.162Z,4.10
2023-04-15T10:36:14.483Z,4.80
2023-04-15T10:37:14.817Z,2.30
2023-04-15T10:38:15.137Z,4.10
2023-04-15T10:39:15.439Z,2.60
2023-04-15T10:40:15.762Z,5.00
2023-04-15T10:41:17.747Z,14.00
2023-04-15T10:42:16.326Z,12.00
2023-04-15T10:43:16.644Z,9.90
2023-04-15T10:44:16.936Z,4.60
2023-04-15T10:45:17.287Z,6.30
2023-04-15T10:46:17.520Z,7.80
2023-04-15T10:47:17.836Z,3.40
2023-04-15T10:48:18.183Z,7.90
2023-04-15T10:49:18.347Z,6.40
2023-04-15T10:50:18.628Z,6.00
2023-04-15T10:51:18.917Z,3.70
2023-04-15T10:52:19.239Z,5.20
2023-04-15T10:53:21.733Z,3.20
2023-04-15T10:54:19.883Z,3.30
2023-04-15T10:55:20.182Z,3.80
2023-04-15T10:56:20.524Z,4.60
2023-04-15T10:57:20.833Z,3.40
2023-04-15T10:58:21.131Z,3.70
2023-04-15T10:59:22.386Z,4.80
2023-04-15T11:00:21.729Z,3.40
2023-04-15T11:01:22.060Z,3.00
2023-04-15T11:02:22.593Z,4.00
2023-04-15T11:03:22.798Z,3.70
2023-04-15T11:04:23.020Z,4.30
2023-04-15T11:05:23.308Z,5.10
2023-04-15T11:06:23.601Z,4.10
2023-04-15T11:07:23.947Z,4.10
2023-04-15T11:08:24.246Z,4.30
2023-04-15T11:09:24.538Z,4.60
2023-04-15T11:10:24.839Z,5.30
2023-04-15T11:11:25.139Z,3.80
2023-04-15T11:12:25.478Z,4.30
2023-04-15T11:13:25.805Z,3.90
2023-04-15T11:14:26.103Z,3.30
2023-04-15T11:15:26.419Z,3.50
2023-04-15T11:16:26.728Z,3.30
2023-04-15T11:17:27.079Z,3.60
2023-04-15T11:18:27.355Z,3.10
2023-04-15T11:19:27.645Z,3.10
2023-04-15T11:20:27.970Z,4.00
2023-04-15T11:21:28.284Z,3.70
2023-04-15T11:22:28.615Z,4.20
2023-04-15T11:23:28.824Z,5.30
2023-04-15T11:24:29.154Z,3.30
2023-04-15T11:25:29.466Z,3.70
2023-04-15T11:26:29.760Z,2.70
2023-04-15T11:27:30.116Z,3.30
2023-04-15T11:28:30.448Z,3.80
2023-04-15T11:29:30.747Z,4.90
2023-04-15T11:30:31.167Z,3.80
2023-04-15T11:31:31.342Z,3.70
2023-04-15T11:32:31.693Z,7.70
2023-04-15T11:33:32.007Z,4.50
2023-04-15T11:34:33.697Z,6.90
2023-04-15T11:35:32.600Z,8.00
2023-04-15T11:36:32.936Z,4.50
2023-04-15T11:37:33.233Z,3.60
2023-04-15T11:38:33.569Z,3.90
2023-04-15T11:39:33.847Z,4.80
2023-04-15T11:40:34.175Z,3.20
2023-04-15T11:41:34.486Z,3.60
2023-04-15T11:42:48.699Z,4.20
2023-04-15T11:43:36.064Z,3.60
2023-04-15T11:44:35.383Z,7.10
2023-04-15T11:45:35.744Z,3.70
2023-04-15T11:46:36.022Z,3.40
2023-04-15T11:47:36.433Z,5.10
2023-04-15T11:48:36.685Z,5.20
2023-04-15T11:49:37.000Z,3.20
2023-04-15T11:50:37.296Z,3.60
2023-04-15T11:51:37.598Z,3.30
2023-04-15T11:52:37.934Z,3.00
2023-04-15T11:53:38.234Z,3.40
2023-04-15T11:54:38.555Z,3.30
2023-04-15T11:55:38.838Z,3.70
2023-04-15T11:56:39.149Z,4.60
2023-04-15T11:57:39.450Z,4.80
2023-04-15T11:58:39.770Z,3.20
2023-04-15T11:59:45.230Z,3.70
2023-04-15T12:00:41.431Z,3.30
2023-04-15T12:01:40.660Z,4.20
2023-04-15T12:02:41.058Z,3.20
2023-04-15T12:03:41.699Z,3.30
2023-04-15T12:04:41.801Z,3.30
2023-04-15T12:05:41.867Z,3.10
2023-04-15T12:06:42.247Z,3.40
2023-04-15T12:07:42.392Z,2.70
2023-04-15T12:08:42.687Z,2.90
2023-04-15T12:09:43.026Z,2.50
2023-04-15T12:10:43.308Z,2.80
2023-04-15T12:11:43.663Z,2.40
2023-04-15T12:12:43.967Z,2.70
2023-04-15T12:13:44.288Z,2.30
2023-04-15T12:14:44.578Z,2.50
2023-04-15T12:15:44.956Z,2.60
2023-04-15T12:16:48.632Z,2.10
2023-04-15T12:17:51.546Z,2.60
2023-04-15T12:18:46.802Z,2.50
2023-04-15T12:19:46.077Z,2.50
2023-04-15T12:20:46.389Z,2.60
2023-04-15T12:21:46.657Z,3.30
2023-04-15T12:22:46.854Z,2.90
2023-04-15T12:23:47.193Z,2.60
2023-04-15T12:24:47.521Z,3.00
2023-04-15T12:25:47.818Z,3.70
2023-04-15T12:26:48.141Z,5.40
2023-04-15T12:27:48.474Z,3.00
2023-04-15T12:28:48.759Z,3.10
2023-04-15T12:29:49.066Z,3.60
2023-04-15T12:30:49.382Z,3.10
2023-04-15T12:31:49.707Z,5.00
2023-04-15T12:32:50.105Z,3.70
2023-04-15T12:33:50.246Z,3.60
2023-04-15T12:34:50.556Z,3.20
2023-04-15T12:35:50.865Z,3.10
2023-04-15T12:36:51.210Z,3.20
2023-04-15T12:37:51.515Z,3.30
2023-04-15T12:38:51.831Z,7.70
2023-04-15T12:39:52.124Z,5.10
2023-04-15T12:40:52.418Z,3.70
2023-04-15T12:41:52.750Z,3.60
2023-04-15T12:42:53.086Z,3.70
2023-04-15T12:43:53.436Z,3.60
2023-04-15T12:44:53.721Z,3.40
2023-04-15T12:45:54.029Z,3.90
2023-04-15T12:46:54.481Z,5.20
2023-04-15T12:47:54.713Z,4.60
2023-04-15T12:48:55.000Z,4.40
2023-04-15T12:49:55.344Z,3.90
2023-04-15T12:50:55.675Z,5.20
2023-04-15T12:51:56.050Z,5.20
2023-04-15T12:52:56.358Z,4.50
2023-04-15T12:53:56.646Z,4.20
2023-04-15T12:54:56.860Z,4.40
2023-04-15T12:55:57.150Z,4.50
2023-04-15T12:56:57.518Z,4.40
2023-04-15T12:57:57.781Z,5.00
2023-04-15T12:58:58.098Z,4.80
2023-04-15T12:59:58.399Z,4.40
2023-04-15T13:00:58.694Z,4.80
2023-04-15T13:01:59.119Z,5.40
2023-04-15T13:02:59.331Z,4.90
2023-04-15T13:03:59.734Z,4.90
2023-04-15T13:04:59.900Z,4.80
2023-04-15T13:06:00.104Z,5.10
2023-04-15T13:07:00.359Z,5.50
2023-04-15T13:08:00.690Z,5.50
2023-04-15T13:09:00.980Z,5.20
2023-04-15T13:10:01.284Z,5.30